首页
METAR-TAF:

METAR-TAF

机场 :

開羅國際機場

开罗, 埃及

纬度: 30-08N, 经度: 031-24E, 海拔: 64米

当前天气观测

该预报发布于24分钟前的18:00 UTC
风速9节,风向
温度 31°C
湿度 40%
气压 1012 hPa
能見度: 6000
散云层高于2500英尺

METAR: HECA 181800Z 01009KT 6000 SCT025 31/16 Q1012 NOSIG

时间: 20:24 (18:24 UTC)

预报

该预报发布于1小时和24分钟前的17:00 UTC
预报有效从18日的 18点(UTC)到 19日的 24点(UTC)
风速8节,风向
能见度10公里或以上
1500米以下无云,无积雨云
短暂存在
从 19日的 02点(UTC)到 19日的 08点(UTC)
能見度: 4000
轻雾

TAF: HECA 181700Z 1818/1924 36008KT CAVOK TEMPO 1902/1908 4000 BR NSC

超过4000个机场的气象观测和天气预报(METAR&TAF报告)。

可查询的气象台以黄色和红色小点在地图上表示。

将鼠标移到小点上方,可查看气象台名称。

然后点击查看天气观测和预报。

如需切换地图:点击带黑十字的绿色按钮放大地图;点击带横线的绿色按钮缩小地图;或者点击绿色箭头查看邻近地区的地图。


METAR-TAF: